Buoy 43533

sailwx.info

Track history (hours):
 
Tides and Currents Weather Stations Pressure Air Temp Water Temp Dewpoint Dewpoint Depression Visibility Wind Speed Wind Dir Waves Ship Positions

Drifting buoy 43533

Last reported at 2015-Mar-30 13:00 UTC. Time now 2015-Mar-30 17:28 UTC.
Position N 17°53' W 104°57'.

Length 24 m.

Type: Fishing. MMSI: 412466549.

Water temperature 26.8 ° C

Date/timePositionNaut miles runAvg speedWind from/ knotsBaromVisibWave heightAir tempDewpointWater temp
2015-Mar-30 13:00N 17°53' W 104°57'0 0.2 26.8
2015-Mar-30 12:00N 17°53' W 104°57'1 0.3 26.8
2015-Mar-30 10:00N 17°53' W 104°57'2 2.1 26.8
2015-Mar-30 09:00N 17°55' W 104°58'2 2.1 26.8
2015-Mar-30 08:00N 17°53' W 104°57'2 0.7 26.8
2015-Mar-30 05:00N 17°55' W 104°58'1 0.3 26.9
2015-Mar-30 03:00N 17°55' W 104°58'1 0.3 27.0
2015-Mar-30 01:00N 17°56' W 104°59'2 1.1 27.2
2015-Mar-29 23:00N 17°56' W 104°56'0 0.0 27.8
2015-Mar-29 22:00N 17°56' W 104°56'0 0.0 28.0
2015-Mar-29 21:00N 17°56' W 104°56'2 0.4 28.2
2015-Mar-29 17:00N 17°58' W 104°57'1 0.9 27.2
2015-Mar-29 16:00N 17°59' W 104°57'0 0.0 26.8
2015-Mar-29 15:00N 17°59' W 104°57'3 0.9 26.7
2015-Mar-29 12:00N 18°01' W 104°58'0 0.2 26.7
2015-Mar-29 11:00N 18°01' W 104°58'0 0.4 26.7
2015-Mar-29 10:00N 18°01' W 104°58'1 1.1 26.8
2015-Mar-29 09:00N 18°03' W 104°58'1 0.5 26.8
2015-Mar-29 08:00N 18°03' W 104°58'0 0.1 26.8
2015-Mar-29 04:00N 18°03' W 104°58'0 0.2 27.0
2015-Mar-29 03:00N 18°03' W 104°58'1 0.9 27.0
2015-Mar-29 02:00N 18°04' W 104°59'1 0.3 27.1
2015-Mar-29 00:00N 18°04' W 104°59'0 0.0 27.5
2015-Mar-28 22:00N 18°04' W 104°59'0 0.2 27.9
2015-Mar-28 21:00N 18°05' W 104°59'0 0.0 28.2
2015-Mar-28 20:00N 18°05' W 104°59'1 0.3 28.2
2015-Mar-28 16:00N 18°05' W 104°58'1 0.4 26.8
2015-Mar-28 13:00N 18°06' W 104°57'1 0.8 26.6
2015-Mar-28 12:00N 18°07' W 104°57'0 0.1 26.6
2015-Mar-28 11:00N 18°07' W 104°57'0 0.4 26.6
2015-Mar-28 10:00N 18°07' W 104°57'0 0.2 26.6
2015-Mar-28 09:00N 18°07' W 104°57'0 0.2 26.6
2015-Mar-28 08:00N 18°07' W 104°57'0 0.0 26.6
2015-Mar-28 07:00N 18°07' W 104°57'2 1.0 26.7
2015-Mar-28 05:00N 18°08' W 104°55'0 0.1 26.7
2015-Mar-28 03:00N 18°08' W 104°55'1 0.6 26.7
2015-Mar-28 02:00N 18°08' W 104°55'1 0.2 26.7
2015-Mar-27 22:00N 18°08' W 104°54'1 1.2 26.9
2015-Mar-27 21:00N 18°09' W 104°53'1 0.4 26.9
2015-Mar-27 19:00N 18°10' W 104°52'2 1.6 27.0
2015-Mar-27 18:00N 18°11' W 104°51'0 0.2 26.9
2015-Mar-27 17:00N 18°11' W 104°51'1 0.7 26.8
2015-Mar-27 16:00N 18°11' W 104°51'2 0.6 26.7
2015-Mar-27 13:00N 18°13' W 104°51'1 0.3 26.7
2015-Mar-27 11:00N 18°14' W 104°51'0 0.3 26.7
2015-Mar-27 10:00N 18°14' W 104°51'1 0.3 26.7
2015-Mar-27 08:00N 18°14' W 104°52'0 0.0 26.8
2015-Mar-27 07:00N 18°14' W 104°52'1 0.6 26.8
2015-Mar-27 05:00N 18°14' W 104°51'1 0.5 26.9
2015-Mar-27 04:00N 18°13' W 104°51'1 0.5 27.0
2015-Mar-27 02:00N 18°13' W 104°51'2 1.9 27.1
2015-Mar-27 01:00N 18°12' W 104°50'6 0.5 27.3
2015-Mar-26 12:00N 18°14' W 104°43'2 1.0 26.7
2015-Mar-26 10:00N 18°16' W 104°42'2 0.2 26.7
2015-Mar-25 23:00N 18°18' W 104°41'1 0.2 27.1
2015-Mar-25 20:00N 18°19' W 104°40'0 0.0 27.4
2015-Mar-25 19:00N 18°19' W 104°40'1 0.6 27.2
2015-Mar-25 17:00N 18°18' W 104°40'2 1.6 27.0
2015-Mar-25 16:00N 18°16' W 104°39'0 0.0 26.8
2015-Mar-25 15:00N 18°16' W 104°39'2 0.6 26.7
2015-Mar-25 12:00N 18°17' W 104°37'0 0.3 26.7
2015-Mar-25 11:00N 18°17' W 104°37'1 0.9 26.7
2015-Mar-25 10:00N 18°17' W 104°36'3 0.4 26.7
2015-Mar-25 04:00N 18°18' W 104°33'1 0.7 26.8
2015-Mar-25 02:00N 18°18' W 104°32'2 1.5 26.9
2015-Mar-25 01:00N 18°19' W 104°30'0 0.5 26.9
2015-Mar-25 00:00N 18°19' W 104°30'0 0.0 26.9
2015-Mar-24 23:00N 18°19' W 104°30'1 1.1 27.0
2015-Mar-24 22:00N 18°19' W 104°29'1 0.7 27.1
2015-Mar-24 20:00N 18°19' W 104°27'2 0.2 27.1
2015-Mar-24 11:00N 18°20' W 104°25'0 0.0 26.8
2015-Mar-24 10:00N 18°20' W 104°25'0 0.0 26.8
2015-Mar-24 09:00N 18°20' W 104°25'8 0.7 26.8
2015-Mar-23 22:00N 18°16' W 104°18'4 0.7 27.1
2015-Mar-23 16:00N 18°16' W 104°14'3 0.8 26.8
2015-Mar-23 12:00N 18°16' W 104°11'2 0.8 26.8
2015-Mar-23 09:00N 18°16' W 104°08'0 0.0 26.9
2015-Mar-23 04:00N 18°16' W 104°08'1 0.9 27.0
2015-Mar-23 03:00N 18°15' W 104°07'12 0.8 27.1
2015-Mar-22 12:00N 18°09' W 103°56'0 0.0 27.0
2015-Mar-22 11:00N 18°09' W 103°56'3 1.7 27.0
2015-Mar-22 09:00N 18°07' W 103°53'1 0.2 27.0
2015-Mar-22 03:00N 18°06' W 103°53'1 1.1 27.1
2015-Mar-22 02:00N 18°05' W 103°52'10 0.7 27.2
2015-Mar-21 13:00N 18°01' W 103°42'5 0.8 26.8
2015-Mar-21 07:00N 17°59' W 103°38'4 0.6 27.0
2015-Mar-21 00:00N 17°57' W 103°34'0 0.2 27.3
2015-Mar-20 23:00N 17°57' W 103°34'3 3.1 27.4
2015-Mar-20 22:00N 17°56' W 103°31'0 0.0 27.7
2015-Mar-20 21:00N 17°56' W 103°31'2 0.5 28.0
2015-Mar-20 17:00N 17°54' W 103°29'   27.5
Track history (hours):
 
Tides and Currents Weather Stations Pressure Air Temp Water Temp Dewpoint Dewpoint Depression Visibility Wind Speed Wind Dir Waves Ship Positions

Drifting buoy 43533

Last reported at 2015-Mar-30 13:00 UTC. Time now 2015-Mar-30 17:28 UTC.
Position N 17°53' W 104°57'.

Length 24 m.

Type: Fishing. MMSI: 412466549.

Water temperature 26.8 ° C

Date/timePositionNaut miles runAvg speedWind from/ knotsBaromVisibWave heightAir tempDewpointWater temp
2015-Mar-30 13:00N 17°53' W 104°57'0 0.2 26.8
2015-Mar-30 12:00N 17°53' W 104°57'1 0.3 26.8
2015-Mar-30 10:00N 17°53' W 104°57'2 2.1 26.8
2015-Mar-30 09:00N 17°55' W 104°58'2 2.1 26.8
2015-Mar-30 08:00N 17°53' W 104°57'2 0.7 26.8
2015-Mar-30 05:00N 17°55' W 104°58'1 0.3 26.9
2015-Mar-30 03:00N 17°55' W 104°58'1 0.3 27.0
2015-Mar-30 01:00N 17°56' W 104°59'2 1.1 27.2
2015-Mar-29 23:00N 17°56' W 104°56'0 0.0 27.8
2015-Mar-29 22:00N 17°56' W 104°56'0 0.0 28.0
2015-Mar-29 21:00N 17°56' W 104°56'2 0.4 28.2
2015-Mar-29 17:00N 17°58' W 104°57'1 0.9 27.2
2015-Mar-29 16:00N 17°59' W 104°57'0 0.0 26.8
2015-Mar-29 15:00N 17°59' W 104°57'3 0.9 26.7
2015-Mar-29 12:00N 18°01' W 104°58'0 0.2 26.7
2015-Mar-29 11:00N 18°01' W 104°58'0 0.4 26.7
2015-Mar-29 10:00N 18°01' W 104°58'1 1.1 26.8
2015-Mar-29 09:00N 18°03' W 104°58'1 0.5 26.8
2015-Mar-29 08:00N 18°03' W 104°58'0 0.1 26.8
2015-Mar-29 04:00N 18°03' W 104°58'0 0.2 27.0
2015-Mar-29 03:00N 18°03' W 104°58'1 0.9 27.0
2015-Mar-29 02:00N 18°04' W 104°59'1 0.3 27.1
2015-Mar-29 00:00N 18°04' W 104°59'0 0.0 27.5
2015-Mar-28 22:00N 18°04' W 104°59'0 0.2 27.9
2015-Mar-28 21:00N 18°05' W 104°59'0 0.0 28.2
2015-Mar-28 20:00N 18°05' W 104°59'1 0.3 28.2
2015-Mar-28 16:00N 18°05' W 104°58'1 0.4 26.8
2015-Mar-28 13:00N 18°06' W 104°57'1 0.8 26.6
2015-Mar-28 12:00N 18°07' W 104°57'0 0.1 26.6
2015-Mar-28 11:00N 18°07' W 104°57'0 0.4 26.6
2015-Mar-28 10:00N 18°07' W 104°57'0 0.2 26.6
2015-Mar-28 09:00N 18°07' W 104°57'0 0.2 26.6
2015-Mar-28 08:00N 18°07' W 104°57'0 0.0 26.6
2015-Mar-28 07:00N 18°07' W 104°57'2 1.0 26.7
2015-Mar-28 05:00N 18°08' W 104°55'0 0.1 26.7
2015-Mar-28 03:00N 18°08' W 104°55'1 0.6 26.7
2015-Mar-28 02:00N 18°08' W 104°55'1 0.2 26.7
2015-Mar-27 22:00N 18°08' W 104°54'1 1.2 26.9
2015-Mar-27 21:00N 18°09' W 104°53'1 0.4 26.9
2015-Mar-27 19:00N 18°10' W 104°52'2 1.6 27.0
2015-Mar-27 18:00N 18°11' W 104°51'0 0.2 26.9
2015-Mar-27 17:00N 18°11' W 104°51'1 0.7 26.8
2015-Mar-27 16:00N 18°11' W 104°51'2 0.6 26.7
2015-Mar-27 13:00N 18°13' W 104°51'1 0.3 26.7
2015-Mar-27 11:00N 18°14' W 104°51'0 0.3 26.7
2015-Mar-27 10:00N 18°14' W 104°51'1 0.3 26.7
2015-Mar-27 08:00N 18°14' W 104°52'0 0.0 26.8
2015-Mar-27 07:00N 18°14' W 104°52'1 0.6 26.8
2015-Mar-27 05:00N 18°14' W 104°51'1 0.5 26.9
2015-Mar-27 04:00N 18°13' W 104°51'1 0.5 27.0
2015-Mar-27 02:00N 18°13' W 104°51'2 1.9 27.1
2015-Mar-27 01:00N 18°12' W 104°50'6 0.5 27.3
2015-Mar-26 12:00N 18°14' W 104°43'2 1.0 26.7
2015-Mar-26 10:00N 18°16' W 104°42'2 0.2 26.7
2015-Mar-25 23:00N 18°18' W 104°41'1 0.2 27.1
2015-Mar-25 20:00N 18°19' W 104°40'0 0.0 27.4
2015-Mar-25 19:00N 18°19' W 104°40'1 0.6 27.2
2015-Mar-25 17:00N 18°18' W 104°40'2 1.6 27.0
2015-Mar-25 16:00N 18°16' W 104°39'0 0.0 26.8
2015-Mar-25 15:00N 18°16' W 104°39'2 0.6 26.7
2015-Mar-25 12:00N 18°17' W 104°37'0 0.3 26.7
2015-Mar-25 11:00N 18°17' W 104°37'1 0.9 26.7
2015-Mar-25 10:00N 18°17' W 104°36'3 0.4 26.7
2015-Mar-25 04:00N 18°18' W 104°33'1 0.7 26.8
2015-Mar-25 02:00N 18°18' W 104°32'2 1.5 26.9
2015-Mar-25 01:00N 18°19' W 104°30'0 0.5 26.9
2015-Mar-25 00:00N 18°19' W 104°30'0 0.0 26.9
2015-Mar-24 23:00N 18°19' W 104°30'1 1.1 27.0
2015-Mar-24 22:00N 18°19' W 104°29'1 0.7 27.1
2015-Mar-24 20:00N 18°19' W 104°27'2 0.2 27.1
2015-Mar-24 11:00N 18°20' W 104°25'0 0.0 26.8
2015-Mar-24 10:00N 18°20' W 104°25'0 0.0 26.8
2015-Mar-24 09:00N 18°20' W 104°25'8 0.7 26.8
2015-Mar-23 22:00N 18°16' W 104°18'4 0.7 27.1
2015-Mar-23 16:00N 18°16' W 104°14'3 0.8 26.8
2015-Mar-23 12:00N 18°16' W 104°11'2 0.8 26.8
2015-Mar-23 09:00N 18°16' W 104°08'0 0.0 26.9
2015-Mar-23 04:00N 18°16' W 104°08'1 0.9 27.0
2015-Mar-23 03:00N 18°15' W 104°07'12 0.8 27.1
2015-Mar-22 12:00N 18°09' W 103°56'0 0.0 27.0
2015-Mar-22 11:00N 18°09' W 103°56'3 1.7 27.0
2015-Mar-22 09:00N 18°07' W 103°53'1 0.2 27.0
2015-Mar-22 03:00N 18°06' W 103°53'1 1.1 27.1
2015-Mar-22 02:00N 18°05' W 103°52'10 0.7 27.2
2015-Mar-21 13:00N 18°01' W 103°42'5 0.8 26.8
2015-Mar-21 07:00N 17°59' W 103°38'4 0.6 27.0
2015-Mar-21 00:00N 17°57' W 103°34'0 0.2 27.3
2015-Mar-20 23:00N 17°57' W 103°34'3 3.1 27.4
2015-Mar-20 22:00N 17°56' W 103°31'0 0.0 27.7
2015-Mar-20 21:00N 17°56' W 103°31'2 0.5 28.0
2015-Mar-20 17:00N 17°54' W 103°29'   27.5

Dump ship's entire track history